Ryuoh Maru No.2 — JM5900 — position and weather

sailwx.info

Track history (hours):
 
Tides and Currents Weather Stations Pressure Air Temp Water Temp Dewpoint Dewpoint Depression Visibility Wind Speed Wind Dir Waves Ship Positions

Ryuoh Maru No.2

Last reported at 2014-Sep-21 06:13 UTC. Time now 2014-Oct-02 04:35 UTC.
Position N 35°11' E 139°46'.
Warning: this ship's position is 10 days out of date.

Length 80 m; draft 5.4 m.

Type: Cargo ship. MMSI: 431401218.

Date/timePositionNaut miles runAvg speedWind from/ knotsBaromVisibWave heightAir tempDewpointWater temp
2014-Sep-21 06:13N 35°11' E 139°46'710.5
2014-Sep-21 05:33N 35°18' E 139°44'8 7.7
2014-Sep-21 04:33N 35°25' E 139°47'4 4.5
2014-Sep-21 03:33N 35°22' E 139°51'0 0.0
2014-Sep-21 02:32N 35°22' E 139°51'0 0.0
2014-Sep-21 01:33N 35°22' E 139°51'0 0.0
2014-Sep-21 00:33N 35°22' E 139°51'0 0.0
2014-Sep-20 23:33N 35°22' E 139°51'0 0.0
2014-Sep-20 22:33N 35°22' E 139°51'1 1.3
2014-Sep-20 21:33N 35°22' E 139°49'0 0.0
2014-Sep-20 20:33N 35°22' E 139°49'0 0.0
2014-Sep-20 19:33N 35°22' E 139°49'0 0.0
2014-Sep-20 18:33N 35°22' E 139°49'0 0.0
2014-Sep-20 17:33N 35°22' E 139°49'0 0.0
2014-Sep-20 16:33N 35°22' E 139°49'0 0.0
2014-Sep-20 15:33N 35°22' E 139°49'0 0.0
2014-Sep-20 14:33N 35°22' E 139°49'0 0.0
2014-Sep-20 13:33N 35°22' E 139°49'0 0.0
2014-Sep-20 12:33N 35°22' E 139°49'0 0.0
2014-Sep-20 11:33N 35°22' E 139°49'0 0.0
2014-Sep-20 10:30N 35°22' E 139°49'0 0.0
2014-Sep-20 09:33N 35°22' E 139°49'0 0.1
2014-Sep-20 08:33N 35°22' E 139°49'6 6.1
2014-Sep-20 07:33N 35°17' E 139°46'  
2014-Sep-11 21:25N 36°45' E 141°07'12 9.5
2014-Sep-11 20:11N 36°34' E 141°03'7 9.6
2014-Sep-11 19:30N 36°27' E 141°02'22 9.5
2014-Sep-11 17:12N 36°06' E 140°59'710.0
2014-Sep-11 16:32N 35°59' E 140°59'1110.4
2014-Sep-11 15:29N 35°48' E 140°57'11 9.9
2014-Sep-11 14:25N 35°38' E 140°53'910.6
2014-Sep-11 13:33N 35°31' E 140°46'1010.2
2014-Sep-11 12:33N 35°23' E 140°38'1110.9
2014-Sep-11 11:32N 35°14' E 140°30'1313.2
2014-Sep-11 10:31N 35°04' E 140°19'1313.2
2014-Sep-11 09:33N 34°58' E 140°06'1512.3
2014-Sep-11 08:23N 34°53' E 139°49'7 9.0
2014-Sep-11 07:33N 34°59' E 139°43'10 9.6
2014-Sep-11 06:33N 35°08' E 139°45'  
Track history (hours):
 
Tides and Currents Weather Stations Pressure Air Temp Water Temp Dewpoint Dewpoint Depression Visibility Wind Speed Wind Dir Waves Ship Positions

Ryuoh Maru No.2

Last reported at 2014-Sep-21 06:13 UTC. Time now 2014-Oct-02 04:35 UTC.
Position N 35°11' E 139°46'.
Warning: this ship's position is 10 days out of date.

Length 80 m; draft 5.4 m.

Type: Cargo ship. MMSI: 431401218.

Date/timePositionNaut miles runAvg speedWind from/ knotsBaromVisibWave heightAir tempDewpointWater temp
2014-Sep-21 06:13N 35°11' E 139°46'710.5
2014-Sep-21 05:33N 35°18' E 139°44'8 7.7
2014-Sep-21 04:33N 35°25' E 139°47'4 4.5
2014-Sep-21 03:33N 35°22' E 139°51'0 0.0
2014-Sep-21 02:32N 35°22' E 139°51'0 0.0
2014-Sep-21 01:33N 35°22' E 139°51'0 0.0
2014-Sep-21 00:33N 35°22' E 139°51'0 0.0
2014-Sep-20 23:33N 35°22' E 139°51'0 0.0
2014-Sep-20 22:33N 35°22' E 139°51'1 1.3
2014-Sep-20 21:33N 35°22' E 139°49'0 0.0
2014-Sep-20 20:33N 35°22' E 139°49'0 0.0
2014-Sep-20 19:33N 35°22' E 139°49'0 0.0
2014-Sep-20 18:33N 35°22' E 139°49'0 0.0
2014-Sep-20 17:33N 35°22' E 139°49'0 0.0
2014-Sep-20 16:33N 35°22' E 139°49'0 0.0
2014-Sep-20 15:33N 35°22' E 139°49'0 0.0
2014-Sep-20 14:33N 35°22' E 139°49'0 0.0
2014-Sep-20 13:33N 35°22' E 139°49'0 0.0
2014-Sep-20 12:33N 35°22' E 139°49'0 0.0
2014-Sep-20 11:33N 35°22' E 139°49'0 0.0
2014-Sep-20 10:30N 35°22' E 139°49'0 0.0
2014-Sep-20 09:33N 35°22' E 139°49'0 0.1
2014-Sep-20 08:33N 35°22' E 139°49'6 6.1
2014-Sep-20 07:33N 35°17' E 139°46'  
2014-Sep-11 21:25N 36°45' E 141°07'12 9.5
2014-Sep-11 20:11N 36°34' E 141°03'7 9.6
2014-Sep-11 19:30N 36°27' E 141°02'22 9.5
2014-Sep-11 17:12N 36°06' E 140°59'710.0
2014-Sep-11 16:32N 35°59' E 140°59'1110.4
2014-Sep-11 15:29N 35°48' E 140°57'11 9.9
2014-Sep-11 14:25N 35°38' E 140°53'910.6
2014-Sep-11 13:33N 35°31' E 140°46'1010.2
2014-Sep-11 12:33N 35°23' E 140°38'1110.9
2014-Sep-11 11:32N 35°14' E 140°30'1313.2
2014-Sep-11 10:31N 35°04' E 140°19'1313.2
2014-Sep-11 09:33N 34°58' E 140°06'1512.3
2014-Sep-11 08:23N 34°53' E 139°49'7 9.0
2014-Sep-11 07:33N 34°59' E 139°43'10 9.6
2014-Sep-11 06:33N 35°08' E 139°45'  

Dump ship's entire track history